Flight Track Log - Related Links

Times and Time Zones

All times are in EDT time to prevent confusion due to time zone crossing. See the BOE5 flight status page for this flight to view local times or setup timezone preferences in your user account.

Time Position Orientation Groundspeed Altitude Reporting Facility
EDT Latitude Longitude Course Direction KTS MPH feet Rate Location/Type
Wed 06:59:51 PM 30.8644 -121.5839 48° Northeast 525 604 30,000  Level Los Angeles Center
Wed 07:00:53 PM 31.0067 -121.5433 14° North 525 604 30,000  Level Los Angeles Center
Wed 07:01:55 PM 31.1486 -121.5033 14° North 525 604 30,000 -145 Level Los Angeles Center
Wed 07:02:57 PM 31.2647 -121.3897 40° Northeast 543 625 29,700 -532 Descending Los Angeles Center
Wed 07:03:59 PM 31.3839 -121.2264 49° Northeast 554 638 28,900 -339 Descending Los Angeles Center
Wed 07:05:00 PM 31.0223 -121.3922 48° Northeast  Level Estimated
Wed 07:05:01 PM 31.4853 -121.0975 47° Northeast 549 632 29,000  Level Los Angeles Center
Wed 07:06:03 PM 31.5847 -120.9586 50° Northeast 552 635 28,900 -48 Descending Los Angeles Center
Wed 07:07:05 PM 31.6842 -120.8217 50° Northeast 554 638 28,900  Level Los Angeles Center
Wed 07:08:07 PM 31.7828 -120.6853 50° Northeast 550 633 28,900  Level Los Angeles Center
Wed 07:09:09 PM 31.8808 -120.5506 49° Northeast 546 628 28,900 48 Level Los Angeles Center
Wed 07:10:11 PM 31.9989 -120.3869 50° Northeast 546 628 29,000 48 Climbing Los Angeles Center
Wed 07:11:13 PM 32.0972 -120.2494 50° Northeast 549 632 29,000 -48 Level Los Angeles Center
Wed 07:12:15 PM 32.1939 -120.1133 50° Northeast 545 627 28,900  Descending Los Angeles Center
Wed 07:13:17 PM 32.3036 -119.9575 50° Northeast 545 627 29,000 48 Climbing Los Angeles Center
Wed 07:14:19 PM 32.4006 -119.8197 50° Northeast 546 628 29,000  Level Los Angeles Center
Wed 07:15:21 PM 32.4983 -119.6836 50° Northeast 545 627 29,000  Level Los Angeles Center
Wed 07:16:23 PM 32.5944 -119.5453 50° Northeast 544 626 29,000  Level Los Angeles Center
Wed 07:17:25 PM 32.6919 -119.4064 50° Northeast 547 629 29,000  Level Los Angeles Center
Wed 07:18:27 PM 32.7892 -119.2681 50° Northeast 548 631 29,000  Level Los Angeles Center
Wed 07:19:29 PM 32.9050 -119.1014 50° Northeast 547 629 29,000  Level Los Angeles Center
Wed 07:20:31 PM 33.0036 -118.9614 50° Northeast 550 633 29,000  Level Los Angeles Center
Wed 07:21:33 PM 33.0989 -118.8225 51° Northeast 546 628 29,000  Level Los Angeles Center
Wed 07:22:35 PM 33.1950 -118.6814 51° Northeast 550 633 29,000  Level Los Angeles Center
Wed 07:23:37 PM 33.2911 -118.5414 51° Northeast 549 632 29,000  Level Los Angeles Center
Wed 07:24:38 PM 33.3608 -118.3819 62° Northeast 558 642 29,000 -488 Level Los Angeles Center
Wed 07:25:40 PM 33.3394 -118.1553 96° East 579 666 28,000 -1,548 Descending Los Angeles Center
Wed 07:26:42 PM 33.3244 -117.9725 96° East 564 649 25,800 -1,935 Descending Los Angeles Center
Wed 07:27:44 PM 33.3231 -117.7958 90° East 544 626 24,000 -1,742 Descending Los Angeles Center
Wed 07:28:46 PM 33.3203 -117.6339 91° East 508 585 22,200 -3,339 Descending Los Angeles Center
Wed 07:29:48 PM 33.3164 -117.4814 92° East 473 544 17,100 -2,903 Descending Los Angeles Center
Wed 07:30:50 PM 33.3411 -117.3342 79° East 399 459 16,200 -532 Descending Los Angeles Center
Wed 07:31:52 PM 33.3697 -117.2342 71° East 345 397 16,000 -404 Descending Los Angeles Center
Wed 07:32:34 PM 33.4000 -117.1833 54° Northeast 290 334 15,500 -1,161 Descending Southern California TRACON
Wed 07:32:54 PM 33.4261 -117.1558 41° Northeast 313 360 14,800 -1,829 Descending Los Angeles Center
Wed 07:33:56 PM 33.4942 -117.1478 North 253 291 13,000 -1,355 Descending Los Angeles Center
Wed 07:34:58 PM 33.5611 -117.1236 17° North 249 287 12,000 -484 Descending Los Angeles Center
Wed 07:36:00 PM 33.6206 -117.1128 North 238 274 12,000 -290 Level Los Angeles Center
Wed 07:37:02 PM 33.6911 -117.1289 349° North 219 252 11,400 -1,645 Descending Los Angeles Center
Wed 07:38:04 PM 33.7500 -117.1575 338° Northwest 227 261 8,600 -2,468 Descending Los Angeles Center
Wed 07:39:06 PM 33.8133 -117.1858 340° North 238 274 6,300 -1,839 Descending Los Angeles Center
Wed 07:40:08 PM 33.8681 -117.2086 341° North 223 257 4,800 -1,590 Descending Los Angeles Center
Wed 07:40:29 PM 33.9000 -117.2167 348° North 209 241 4,100 -552 Descending Southern California TRACON
Wed 07:41:35 PM 33.9500 -117.2500 331° Northwest 209 241 4,000 -48 Descending Southern California TRACON
Wed 07:42:35 PM 34.0000 -117.2833 331° Northwest 191 220 4,000 -250 Level Southern California TRACON
Wed 07:43:35 PM 34.0333 -117.3167 320° Northwest 155 178 3,500 -850 Descending Southern California TRACON
Wed 07:44:35 PM 34.0667 -117.3167 360° North 135 155 2,300 -1,050 Descending Southern California TRACON
Wed 07:45:35 PM 34.0833 -117.2667 68° East 154 177 1,400 -900 Descending Southern California TRACON

Login

Don't have an account? Register now (free) for customized features, flight alerts, and more!